Campanya meteocatpedra

Dades de l'estació automàtica Port de Barcelona - Bocana Sud

?
?
Resum diari 20:00 TU
Dades diàries de l'estació meteorològica
Ratxa màxima del vent (10 m) 36.0 km/h - 191º 13:39 TU

El tram horari està expressat en Temps Universal (TU). Cal sumar una hora en horari d'hivern i dues en horari d'estiu per passar a l'hora oficial.

Port de Barcelona - Bocana Sud

Metadades estació meteorol´gica
Municipi El Prat de Llobregat
Comarca Baix Llobregat
Altitud 3 m
Data alta 08.04.2015
Estat actual Operativa
Dades de període
Període
TU
VVM (10 m)
km/h
DVM (10 m)
graus
VVX (10 m)
km/h
00:00 - 00:30 18.0 64 24.1
00:30 - 01:00 18.0 48 25.9
01:00 - 01:30 20.2 56 29.9
01:30 - 02:00 23.4 73 31.7
02:00 - 02:30 19.4 79 25.9
02:30 - 03:00 12.6 80 18.4
03:00 - 03:30 4.7 85 10.1
03:30 - 04:00 4.0 86 6.5
04:00 - 04:30 3.2 81 15.5
04:30 - 05:00 14.8 295 20.5
05:00 - 05:30 19.4 299 30.2
05:30 - 06:00 22.7 296 30.2
06:00 - 06:30 23.0 295 31.3
06:30 - 07:00 23.0 294 33.8
07:00 - 07:30 24.1 294 32.4
07:30 - 08:00 25.2 292 32.8
08:00 - 08:30 19.1 292 28.4
08:30 - 09:00 13.7 275 22.7
09:00 - 09:30 10.1 224 22.7
09:30 - 10:00 20.2 187 24.1
10:00 - 10:30 18.7 195 25.9
10:30 - 11:00 14.8 251 27.4
11:00 - 11:30 11.5 264 21.2
11:30 - 12:00 12.2 249 18.7
12:00 - 12:30 18.7 200 29.2
12:30 - 13:00 22.7 195 29.5
13:00 - 13:30 22.7 193 28.1
13:30 - 14:00 28.4 194 36.0
14:00 - 14:30 29.2 187 34.9
14:30 - 15:00 29.5 185 35.3
15:00 - 15:30 28.4 183 33.8
15:30 - 16:00 25.9 181 33.8
16:00 - 16:30 27.7 186 32.8
16:30 - 17:00 23.0 190 27.7
17:00 - 17:30 24.1 201 29.5
17:30 - 18:00 23.8 201 28.4
18:00 - 18:30 23.8 196 32.0
18:30 - 19:00 21.6 184 27.0
19:00 - 19:30 19.1 181 23.8
19:30 - 20:00 15.1 176 19.8
20:00 - 20:30 16.2 161 22.3

Les dades en taronja només han passat un control de qualitat automàtic. Resta pendent la seva validació definitiva.